sensor_id;sensor_type;location;lat;lon;timestamp;temperature;humidity
44707;DHT22;30433;45.596;8.408;2023-12-20T00:00:45;3.40;99.90
44707;DHT22;30433;45.596;8.408;2023-12-20T00:06:47;3.60;99.90
44707;DHT22;30433;45.596;8.408;2023-12-20T00:12:49;3.50;99.90
44707;DHT22;30433;45.596;8.408;2023-12-20T00:18:53;3.10;99.90
44707;DHT22;30433;45.596;8.408;2023-12-20T00:24:55;3.20;99.90
44707;DHT22;30433;45.596;8.408;2023-12-20T00:30:57;3.30;99.90
44707;DHT22;30433;45.596;8.408;2023-12-20T00:37:00;3.20;99.90
44707;DHT22;30433;45.596;8.408;2023-12-20T00:43:03;3.30;99.90
44707;DHT22;30433;45.596;8.408;2023-12-20T00:49:05;3.40;99.90
44707;DHT22;30433;45.596;8.408;2023-12-20T00:55:09;3.40;99.90
44707;DHT22;30433;45.596;8.408;2023-12-20T01:01:10;3.60;99.90
44707;DHT22;30433;45.596;8.408;2023-12-20T01:07:13;4.00;99.90
44707;DHT22;30433;45.596;8.408;2023-12-20T01:13:17;4.40;99.90
44707;DHT22;30433;45.596;8.408;2023-12-20T01:19:19;3.90;99.90
44707;DHT22;30433;45.596;8.408;2023-12-20T01:25:21;3.10;99.90
44707;DHT22;30433;45.596;8.408;2023-12-20T01:31:26;3.40;99.90
44707;DHT22;30433;45.596;8.408;2023-12-20T01:37:28;2.80;99.90
44707;DHT22;30433;45.596;8.408;2023-12-20T01:43:30;2.60;99.90
44707;DHT22;30433;45.596;8.408;2023-12-20T01:49:34;2.60;99.90
44707;DHT22;30433;45.596;8.408;2023-12-20T01:55:38;2.90;99.90
44707;DHT22;30433;45.596;8.408;2023-12-20T02:01:41;2.90;99.90
44707;DHT22;30433;45.596;8.408;2023-12-20T02:07:44;3.10;99.90
44707;DHT22;30433;45.596;8.408;2023-12-20T02:13:46;2.80;99.90
44707;DHT22;30433;45.596;8.408;2023-12-20T02:19:49;3.30;99.90
44707;DHT22;30433;45.596;8.408;2023-12-20T02:25:53;3.00;99.90
44707;DHT22;30433;45.596;8.408;2023-12-20T02:31:55;3.30;99.90
44707;DHT22;30433;45.596;8.408;2023-12-20T02:37:57;3.50;99.90
44707;DHT22;30433;45.596;8.408;2023-12-20T02:44:01;3.60;99.90
44707;DHT22;30433;45.596;8.408;2023-12-20T02:50:04;3.60;99.90
44707;DHT22;30433;45.596;8.408;2023-12-20T02:56:06;3.40;99.90
44707;DHT22;30433;45.596;8.408;2023-12-20T03:02:10;3.30;99.90
44707;DHT22;30433;45.596;8.408;2023-12-20T03:08:12;3.30;99.90
44707;DHT22;30433;45.596;8.408;2023-12-20T03:14:14;3.00;99.90
44707;DHT22;30433;45.596;8.408;2023-12-20T03:20:17;3.40;99.90
44707;DHT22;30433;45.596;8.408;2023-12-20T03:26:19;3.00;99.90
44707;DHT22;30433;45.596;8.408;2023-12-20T03:32:22;3.10;99.90
44707;DHT22;30433;45.596;8.408;2023-12-20T03:38:26;3.00;99.90
44707;DHT22;30433;45.596;8.408;2023-12-20T03:44:28;3.00;99.90
44707;DHT22;30433;45.596;8.408;2023-12-20T03:50:30;3.00;99.90
44707;DHT22;30433;45.596;8.408;2023-12-20T03:56:34;3.10;99.90
44707;DHT22;30433;45.596;8.408;2023-12-20T04:02:36;3.30;99.90
44707;DHT22;30433;45.596;8.408;2023-12-20T04:08:38;3.00;99.90
44707;DHT22;30433;45.596;8.408;2023-12-20T04:14:41;3.40;99.90
44707;DHT22;30433;45.596;8.408;2023-12-20T04:20:43;3.00;99.90
44707;DHT22;30433;45.596;8.408;2023-12-20T04:26:46;2.80;99.90
44707;DHT22;30433;45.596;8.408;2023-12-20T04:32:49;2.80;99.90
44707;DHT22;30433;45.596;8.408;2023-12-20T04:38:53;3.10;99.90
44707;DHT22;30433;45.596;8.408;2023-12-20T04:44:55;2.80;99.90
44707;DHT22;30433;45.596;8.408;2023-12-20T04:50:58;2.90;99.90
44707;DHT22;30433;45.596;8.408;2023-12-20T04:57:00;2.80;99.90
44707;DHT22;30433;45.596;8.408;2023-12-20T05:03:03;3.10;99.90
44707;DHT22;30433;45.596;8.408;2023-12-20T05:09:06;3.20;99.90
44707;DHT22;30433;45.596;8.408;2023-12-20T05:15:09;2.90;99.90
44707;DHT22;30433;45.596;8.408;2023-12-20T05:21:12;2.90;99.90
44707;DHT22;30433;45.596;8.408;2023-12-20T05:27:15;3.00;99.90
44707;DHT22;30433;45.596;8.408;2023-12-20T05:33:17;3.30;99.90
44707;DHT22;30433;45.596;8.408;2023-12-20T05:39:20;3.50;99.90
44707;DHT22;30433;45.596;8.408;2023-12-20T05:45:23;3.10;99.90
44707;DHT22;30433;45.596;8.408;2023-12-20T05:51:25;3.20;99.90
44707;DHT22;30433;45.596;8.408;2023-12-20T05:57:27;3.30;99.90
44707;DHT22;30433;45.596;8.408;2023-12-20T06:03:31;3.50;99.90
44707;DHT22;30433;45.596;8.408;2023-12-20T06:09:33;3.20;99.90
44707;DHT22;30433;45.596;8.408;2023-12-20T06:15:35;3.20;99.90
44707;DHT22;30433;45.596;8.408;2023-12-20T06:21:38;3.30;99.90
44707;DHT22;30433;45.596;8.408;2023-12-20T06:27:40;3.20;99.90
44707;DHT22;30433;45.596;8.408;2023-12-20T06:33:43;3.60;99.90
44707;DHT22;30433;45.596;8.408;2023-12-20T06:39:47;3.50;99.90
44707;DHT22;30433;45.596;8.408;2023-12-20T06:45:48;3.70;99.90
44707;DHT22;30433;45.596;8.408;2023-12-20T06:51:51;4.00;99.90
44707;DHT22;30433;45.596;8.408;2023-12-20T06:57:55;3.40;99.90
44707;DHT22;30433;45.596;8.408;2023-12-20T07:03:57;3.70;99.90
44707;DHT22;30433;45.596;8.408;2023-12-20T07:09:59;3.80;99.90
44707;DHT22;30433;45.596;8.408;2023-12-20T07:16:03;3.80;99.90
44707;DHT22;30433;45.596;8.408;2023-12-20T07:22:06;3.50;99.90
44707;DHT22;30433;45.596;8.408;2023-12-20T07:28:08;3.70;99.90
44707;DHT22;30433;45.596;8.408;2023-12-20T07:41:10;4.30;99.90
44707;DHT22;30433;45.596;8.408;2023-12-20T07:47:13;4.40;99.90
44707;DHT22;30433;45.596;8.408;2023-12-20T07:53:17;4.30;99.90
44707;DHT22;30433;45.596;8.408;2023-12-20T07:59:21;4.40;99.90
44707;DHT22;30433;45.596;8.408;2023-12-20T08:05:23;4.40;99.90
44707;DHT22;30433;45.596;8.408;2023-12-20T08:11:25;4.30;99.90
44707;DHT22;30433;45.596;8.408;2023-12-20T08:17:28;4.30;99.90
44707;DHT22;30433;45.596;8.408;2023-12-20T08:23:30;4.80;99.90
44707;DHT22;30433;45.596;8.408;2023-12-20T08:29:33;4.70;99.90
44707;DHT22;30433;45.596;8.408;2023-12-20T08:35:36;4.50;99.90
44707;DHT22;30433;45.596;8.408;2023-12-20T08:41:38;4.40;99.90
44707;DHT22;30433;45.596;8.408;2023-12-20T08:47:40;4.40;99.90
44707;DHT22;30433;45.596;8.408;2023-12-20T08:53:46;4.60;99.90
44707;DHT22;30433;45.596;8.408;2023-12-20T08:59:48;4.70;99.90
44707;DHT22;30433;45.596;8.408;2023-12-20T09:05:50;4.90;99.90
44707;DHT22;30433;45.596;8.408;2023-12-20T09:11:54;4.70;99.90
44707;DHT22;30433;45.596;8.408;2023-12-20T09:17:56;4.90;99.90
44707;DHT22;30433;45.596;8.408;2023-12-20T09:23:59;5.10;99.90
44707;DHT22;30433;45.596;8.408;2023-12-20T09:30:03;5.30;99.90
44707;DHT22;30433;45.596;8.408;2023-12-20T09:36:06;5.60;99.90
44707;DHT22;30433;45.596;8.408;2023-12-20T09:42:12;5.80;99.90
44707;DHT22;30433;45.596;8.408;2023-12-20T09:48:20;6.10;99.90
44707;DHT22;30433;45.596;8.408;2023-12-20T09:54:22;6.30;99.90
44707;DHT22;30433;45.596;8.408;2023-12-20T10:00:25;6.40;99.90
44707;DHT22;30433;45.596;8.408;2023-12-20T10:06:28;6.40;99.90
44707;DHT22;30433;45.596;8.408;2023-12-20T10:12:30;6.50;99.90
44707;DHT22;30433;45.596;8.408;2023-12-20T10:18:32;6.70;99.90
44707;DHT22;30433;45.596;8.408;2023-12-20T10:24:36;6.90;99.90
44707;DHT22;30433;45.596;8.408;2023-12-20T10:30:38;7.20;99.90
44707;DHT22;30433;45.596;8.408;2023-12-20T10:36:40;7.40;99.90
44707;DHT22;30433;45.596;8.408;2023-12-20T10:42:44;7.40;99.90
44707;DHT22;30433;45.596;8.408;2023-12-20T10:48:47;7.50;99.90
44707;DHT22;30433;45.596;8.408;2023-12-20T10:54:51;7.60;99.90
44707;DHT22;30433;45.596;8.408;2023-12-20T11:00:59;7.70;99.90
44707;DHT22;30433;45.596;8.408;2023-12-20T11:07:11;7.80;99.90
44707;DHT22;30433;45.596;8.408;2023-12-20T11:13:21;7.80;99.90
44707;DHT22;30433;45.596;8.408;2023-12-20T11:19:26;7.90;99.90
44707;DHT22;30433;45.596;8.408;2023-12-20T11:25:27;7.90;99.90
44707;DHT22;30433;45.596;8.408;2023-12-20T11:31:40;8.00;99.90
44707;DHT22;30433;45.596;8.408;2023-12-20T11:37:43;7.80;99.90
44707;DHT22;30433;45.596;8.408;2023-12-20T11:43:49;8.20;99.90
44707;DHT22;30433;45.596;8.408;2023-12-20T11:49:54;8.70;99.90
44707;DHT22;30433;45.596;8.408;2023-12-20T11:55:58;9.10;99.90
44707;DHT22;30433;45.596;8.408;2023-12-20T12:02:00;8.90;99.90
44707;DHT22;30433;45.596;8.408;2023-12-20T12:08:04;9.60;99.90
44707;DHT22;30433;45.596;8.408;2023-12-20T12:14:08;9.80;99.60
44707;DHT22;30433;45.596;8.408;2023-12-20T12:20:10;10.00;98.40
44707;DHT22;30433;45.596;8.408;2023-12-20T12:26:13;10.20;98.00
44707;DHT22;30433;45.596;8.408;2023-12-20T12:32:16;10.20;97.00
44707;DHT22;30433;45.596;8.408;2023-12-20T12:38:19;10.20;96.30
44707;DHT22;30433;45.596;8.408;2023-12-20T12:44:22;10.40;97.70
44707;DHT22;30433;45.596;8.408;2023-12-20T12:50:25;10.70;97.40
44707;DHT22;30433;45.596;8.408;2023-12-20T12:56:29;10.70;98.00
44707;DHT22;30433;45.596;8.408;2023-12-20T13:02:31;10.80;98.30
44707;DHT22;30433;45.596;8.408;2023-12-20T13:08:35;10.80;98.30
44707;DHT22;30433;45.596;8.408;2023-12-20T13:14:37;10.90;97.90
44707;DHT22;30433;45.596;8.408;2023-12-20T13:20:39;10.90;98.00
44707;DHT22;30433;45.596;8.408;2023-12-20T13:26:43;11.20;96.80
44707;DHT22;30433;45.596;8.408;2023-12-20T13:32:45;11.10;97.40
44707;DHT22;30433;45.596;8.408;2023-12-20T13:38:48;11.10;98.50
44707;DHT22;30433;45.596;8.408;2023-12-20T13:44:52;10.90;98.60
44707;DHT22;30433;45.596;8.408;2023-12-20T13:50:54;11.10;98.20
44707;DHT22;30433;45.596;8.408;2023-12-20T13:56:56;11.10;98.30
44707;DHT22;30433;45.596;8.408;2023-12-20T14:09:57;10.80;97.70
44707;DHT22;30433;45.596;8.408;2023-12-20T14:16:00;10.70;99.20
44707;DHT22;30433;45.596;8.408;2023-12-20T14:22:03;10.70;98.50
44707;DHT22;30433;45.596;8.408;2023-12-20T14:28:06;10.60;98.90
44707;DHT22;30433;45.596;8.408;2023-12-20T14:34:08;10.60;99.60
44707;DHT22;30433;45.596;8.408;2023-12-20T14:40:12;10.10;99.10
44707;DHT22;30433;45.596;8.408;2023-12-20T14:46:18;10.10;99.30
44707;DHT22;30433;45.596;8.408;2023-12-20T14:52:20;10.20;99.90
44707;DHT22;30433;45.596;8.408;2023-12-20T14:58:23;10.00;99.70
44707;DHT22;30433;45.596;8.408;2023-12-20T15:04:27;9.90;99.80
44707;DHT22;30433;45.596;8.408;2023-12-20T15:10:30;9.80;99.90
44707;DHT22;30433;45.596;8.408;2023-12-20T15:16:32;9.60;99.90
44707;DHT22;30433;45.596;8.408;2023-12-20T15:22:35;9.60;99.90
44707;DHT22;30433;45.596;8.408;2023-12-20T15:28:38;9.40;99.90
44707;DHT22;30433;45.596;8.408;2023-12-20T15:34:40;9.20;99.90
44707;DHT22;30433;45.596;8.408;2023-12-20T15:40:44;9.00;99.90
44707;DHT22;30433;45.596;8.408;2023-12-20T15:46:46;8.80;99.90
44707;DHT22;30433;45.596;8.408;2023-12-20T15:52:48;8.60;99.90
44707;DHT22;30433;45.596;8.408;2023-12-20T15:58:52;8.00;99.90
44707;DHT22;30433;45.596;8.408;2023-12-20T16:04:55;7.80;99.90
44707;DHT22;30433;45.596;8.408;2023-12-20T16:10:58;7.40;99.90
44707;DHT22;30433;45.596;8.408;2023-12-20T16:17:02;7.50;99.90
44707;DHT22;30433;45.596;8.408;2023-12-20T16:23:06;7.50;99.90
44707;DHT22;30433;45.596;8.408;2023-12-20T16:29:08;6.50;99.90
44707;DHT22;30433;45.596;8.408;2023-12-20T16:35:12;6.50;99.90
44707;DHT22;30433;45.596;8.408;2023-12-20T16:41:14;5.90;99.90
44707;DHT22;30433;45.596;8.408;2023-12-20T16:47:17;5.10;99.90
44707;DHT22;30433;45.596;8.408;2023-12-20T16:53:20;5.20;99.90
44707;DHT22;30433;45.596;8.408;2023-12-20T16:59:22;5.60;99.90
44707;DHT22;30433;45.596;8.408;2023-12-20T17:05:24;5.20;99.90
44707;DHT22;30433;45.596;8.408;2023-12-20T17:11:28;5.40;99.90
44707;DHT22;30433;45.596;8.408;2023-12-20T17:17:30;4.60;99.90
44707;DHT22;30433;45.596;8.408;2023-12-20T17:23:33;5.10;99.90
44707;DHT22;30433;45.596;8.408;2023-12-20T17:29:37;4.50;99.90
44707;DHT22;30433;45.596;8.408;2023-12-20T17:35:39;4.50;99.90
44707;DHT22;30433;45.596;8.408;2023-12-20T17:41:41;4.70;99.90
44707;DHT22;30433;45.596;8.408;2023-12-20T17:47:45;5.20;99.90
44707;DHT22;30433;45.596;8.408;2023-12-20T17:53:47;3.70;99.90
44707;DHT22;30433;45.596;8.408;2023-12-20T17:59:50;4.30;99.90
44707;DHT22;30433;45.596;8.408;2023-12-20T18:05:54;4.10;99.90
44707;DHT22;30433;45.596;8.408;2023-12-20T18:11:56;3.10;99.90
44707;DHT22;30433;45.596;8.408;2023-12-20T18:17:59;4.00;99.90
44707;DHT22;30433;45.596;8.408;2023-12-20T18:24:03;3.70;99.90
44707;DHT22;30433;45.596;8.408;2023-12-20T18:30:07;4.10;99.90
44707;DHT22;30433;45.596;8.408;2023-12-20T18:36:09;3.30;99.90
44707;DHT22;30433;45.596;8.408;2023-12-20T18:42:13;3.10;99.90
44707;DHT22;30433;45.596;8.408;2023-12-20T18:48:15;2.80;99.90
44707;DHT22;30433;45.596;8.408;2023-12-20T18:54:18;3.40;99.90
44707;DHT22;30433;45.596;8.408;2023-12-20T19:00:22;3.10;99.90
44707;DHT22;30433;45.596;8.408;2023-12-20T19:06:26;2.90;99.90
44707;DHT22;30433;45.596;8.408;2023-12-20T19:12:28;3.00;99.90
44707;DHT22;30433;45.596;8.408;2023-12-20T19:25:28;2.90;99.90
44707;DHT22;30433;45.596;8.408;2023-12-20T19:31:31;3.20;99.90
44707;DHT22;30433;45.596;8.408;2023-12-20T19:37:33;3.50;99.90
44707;DHT22;30433;45.596;8.408;2023-12-20T19:43:36;3.00;99.90
44707;DHT22;30433;45.596;8.408;2023-12-20T19:49:39;2.90;99.90
44707;DHT22;30433;45.596;8.408;2023-12-20T19:55:42;2.10;99.90
44707;DHT22;30433;45.596;8.408;2023-12-20T20:01:46;2.40;99.90
44707;DHT22;30433;45.596;8.408;2023-12-20T20:07:48;2.30;99.90
44707;DHT22;30433;45.596;8.408;2023-12-20T20:13:50;2.70;99.90
44707;DHT22;30433;45.596;8.408;2023-12-20T20:19:54;2.80;99.90
44707;DHT22;30433;45.596;8.408;2023-12-20T20:25:56;3.00;99.90
44707;DHT22;30433;45.596;8.408;2023-12-20T20:31:58;3.00;99.90
44707;DHT22;30433;45.596;8.408;2023-12-20T20:38:02;3.20;99.90
44707;DHT22;30433;45.596;8.408;2023-12-20T20:44:04;2.70;99.90
44707;DHT22;30433;45.596;8.408;2023-12-20T20:50:08;2.70;99.90
44707;DHT22;30433;45.596;8.408;2023-12-20T20:56:12;2.90;99.90
44707;DHT22;30433;45.596;8.408;2023-12-20T21:02:14;2.40;99.90
44707;DHT22;30433;45.596;8.408;2023-12-20T21:15:15;2.20;99.90
44707;DHT22;30433;45.596;8.408;2023-12-20T21:21:17;2.50;99.90
44707;DHT22;30433;45.596;8.408;2023-12-20T21:27:20;2.30;99.90
44707;DHT22;30433;45.596;8.408;2023-12-20T21:33:23;2.70;99.90
44707;DHT22;30433;45.596;8.408;2023-12-20T21:39:25;2.70;99.90
44707;DHT22;30433;45.596;8.408;2023-12-20T21:45:29;2.60;99.90
44707;DHT22;30433;45.596;8.408;2023-12-20T21:51:32;2.60;99.90
44707;DHT22;30433;45.596;8.408;2023-12-20T21:57:34;2.60;99.90
44707;DHT22;30433;45.596;8.408;2023-12-20T22:03:37;1.80;99.90
44707;DHT22;30433;45.596;8.408;2023-12-20T22:09:40;1.60;99.90
44707;DHT22;30433;45.596;8.408;2023-12-20T22:15:42;1.70;99.90
44707;DHT22;30433;45.596;8.408;2023-12-20T22:21:44;1.80;99.90
44707;DHT22;30433;45.596;8.408;2023-12-20T22:27:48;1.80;99.90
44707;DHT22;30433;45.596;8.408;2023-12-20T22:40:46;1.90;99.90
44707;DHT22;30433;45.596;8.408;2023-12-20T22:46:50;2.10;99.90
44707;DHT22;30433;45.596;8.408;2023-12-20T23:13:45;1.30;99.90
44707;DHT22;30433;45.596;8.408;2023-12-20T23:19:47;1.40;99.90
44707;DHT22;30433;45.596;8.408;2023-12-20T23:25:49;1.60;99.90
44707;DHT22;30433;45.596;8.408;2023-12-20T23:31:53;1.30;99.90
44707;DHT22;30433;45.596;8.408;2023-12-20T23:37:55;1.70;99.90
44707;DHT22;30433;45.596;8.408;2023-12-20T23:43:57;1.70;99.90
44707;DHT22;30433;45.596;8.408;2023-12-20T23:50:01;1.50;99.90
44707;DHT22;30433;45.596;8.408;2023-12-20T23:56:04;1.40;99.90
